Time;durP1;ratioP1;P1;durP2;ratioP2;P2;SDS_P1;SDS_P2;PMS_P1;PMS_P2;Temp;Humidity;BMP_temperature;BMP_pressure;BME280_temperature;BME280_humidity;BME280_pressure;Samples;Min_cycle;Max_cycle;Signal;HPM_P1;HPM_P2
2023/12/11 00:01:40;;;;;;;13.98;6.88;;;22.40;48.80;;;;;;5051894;28;20106;-72
2023/12/11 00:04:06;;;;;;;12.43;6.30;;;22.50;48.80;;;;;;5051285;28;20028;-71
2023/12/11 00:06:32;;;;;;;11.20;6.38;;;22.50;48.80;;;;;;5032491;28;20091;-72
2023/12/11 00:08:58;;;;;;;13.07;6.72;;;22.50;48.70;;;;;;5051277;28;20481;-71
2023/12/11 00:11:24;;;;;;;11.73;6.30;;;22.70;48.80;;;;;;5033354;28;20044;-72
2023/12/11 00:13:50;;;;;;;11.88;6.68;;;22.50;48.60;;;;;;5051000;28;20033;-73
2023/12/11 00:16:17;;;;;;;12.10;6.32;;;22.70;48.60;;;;;;5050946;28;20057;-73
2023/12/11 00:18:43;;;;;;;11.60;6.72;;;22.60;48.40;;;;;;5051325;28;20045;-72
2023/12/11 00:21:09;;;;;;;14.98;6.28;;;22.50;48.40;;;;;;5051131;28;20044;-72
2023/12/11 00:23:35;;;;;;;13.68;7.15;;;22.70;48.40;;;;;;5051130;28;20127;-73
2023/12/11 00:26:02;;;;;;;12.23;6.72;;;22.70;48.30;;;;;;5050905;28;20115;-72
2023/12/11 00:28:28;;;;;;;11.15;6.55;;;22.60;48.20;;;;;;5051015;28;20479;-72
2023/12/11 00:30:54;;;;;;;11.73;6.47;;;22.60;48.10;;;;;;5051213;28;20052;-72
2023/12/11 00:33:20;;;;;;;14.05;6.47;;;22.60;48.00;;;;;;5050933;28;20043;-73
2023/12/11 00:35:46;;;;;;;11.52;6.55;;;22.60;48.00;;;;;;5051210;28;20115;-72
2023/12/11 00:38:12;;;;;;;12.68;6.47;;;22.60;48.00;;;;;;5032875;28;20656;-72
2023/12/11 00:40:38;;;;;;;13.43;6.60;;;22.60;47.90;;;;;;5050810;28;20439;-72
2023/12/11 00:43:04;;;;;;;9.93;5.50;;;22.60;47.80;;;;;;5051106;28;20139;-72
2023/12/11 00:45:30;;;;;;;10.15;6.18;;;22.60;47.80;;;;;;5051153;28;20198;-72
2023/12/11 00:47:57;;;;;;;11.95;6.25;;;22.60;47.70;;;;;;5050632;28;20101;-72
2023/12/11 00:50:23;;;;;;;14.80;6.90;;;22.60;47.60;;;;;;5050830;28;20051;-72
2023/12/11 00:52:49;;;;;;;10.68;6.53;;;22.50;47.60;;;;;;5051003;28;20033;-71
2023/12/11 00:55:15;;;;;;;11.93;6.75;;;22.50;47.60;;;;;;5015444;28;20048;-72
2023/12/11 00:57:41;;;;;;;10.98;5.65;;;22.50;47.50;;;;;;5050645;28;20041;-72
2023/12/11 01:00:08;;;;;;;12.25;6.22;;;22.40;47.50;;;;;;5032836;28;20041;-72
2023/12/11 01:02:34;;;;;;;13.38;6.25;;;22.40;47.50;;;;;;5034016;28;20139;-72
2023/12/11 01:05:02;;;;;;;10.00;5.93;;;22.40;47.50;;;;;;5054808;28;20037;-72
2023/12/11 01:07:28;;;;;;;10.48;5.80;;;22.50;47.60;;;;;;5054597;28;20042;-72
2023/12/11 01:09:55;;;;;;;8.40;5.68;;;22.50;47.50;;;;;;5019072;28;20087;-71
2023/12/11 01:12:21;;;;;;;8.80;6.18;;;22.50;47.50;;;;;;5054816;28;20048;-72
2023/12/11 01:14:47;;;;;;;12.65;6.07;;;22.50;47.40;;;;;;5054391;28;20040;-72
2023/12/11 01:17:13;;;;;;;10.35;6.05;;;22.50;47.30;;;;;;5054156;28;20033;-73
2023/12/11 01:19:41;;;;;;;10.90;6.07;;;22.50;47.20;;;;;;5054432;28;20116;-72
2023/12/11 01:22:07;;;;;;;11.43;5.85;;;22.50;47.10;;;;;;5036216;28;20396;-71
2023/12/11 01:24:33;;;;;;;9.80;5.65;;;22.50;47.10;;;;;;5054291;28;20037;-71
2023/12/11 01:26:59;;;;;;;10.95;5.95;;;22.60;47.00;;;;;;5054199;28;20116;-72
2023/12/11 01:29:27;;;;;;;9.73;5.45;;;22.50;47.00;;;;;;5054385;28;20032;-72
2023/12/11 01:31:53;;;;;;;10.30;5.40;;;22.50;46.90;;;;;;5036315;28;20374;-72
2023/12/11 01:34:19;;;;;;;10.43;5.78;;;22.50;46.90;;;;;;5036175;28;20055;-71
2023/12/11 01:36:45;;;;;;;10.25;5.35;;;22.50;46.80;;;;;;5053891;28;20033;-73
2023/12/11 01:39:11;;;;;;;10.35;5.80;;;22.50;46.70;;;;;;5055624;28;20048;-72
2023/12/11 01:41:37;;;;;;;9.95;5.35;;;22.50;46.70;;;;;;5054613;28;20044;-72
2023/12/11 01:44:04;;;;;;;7.28;4.93;;;22.50;46.70;;;;;;5053912;28;20037;-72
2023/12/11 01:46:31;;;;;;;8.60;5.55;;;22.40;46.60;;;;;;5053891;28;20120;-72
2023/12/11 01:48:58;;;;;;;10.18;5.38;;;22.40;46.60;;;;;;5053619;28;20025;-72
2023/12/11 01:51:25;;;;;;;9.43;6.28;;;22.20;46.50;;;;;;5053845;28;20447;-72
2023/12/11 01:53:52;;;;;;;14.25;6.25;;;22.30;46.60;;;;;;5053714;28;20040;-73
2023/12/11 01:56:20;;;;;;;10.70;6.28;;;22.30;46.50;;;;;;5018292;28;20045;-73
2023/12/11 01:58:47;;;;;;;10.05;5.78;;;22.20;46.40;;;;;;5054046;28;20082;-72
2023/12/11 02:01:16;;;;;;;8.27;5.93;;;22.30;46.60;;;;;;5063331;28;20024;-72
2023/12/11 02:03:42;;;;;;;8.75;5.60;;;22.30;46.60;;;;;;5073450;28;20032;-72
2023/12/11 02:06:08;;;;;;;12.85;4.72;;;22.30;46.60;;;;;;5055515;28;20086;-71
2023/12/11 02:08:34;;;;;;;11.07;5.03;;;22.20;46.40;;;;;;5021174;28;20313;-71
2023/12/11 02:11:00;;;;;;;7.97;4.47;;;22.20;46.40;;;;;;5073574;28;20029;-72
2023/12/11 02:13:26;;;;;;;9.32;5.50;;;22.30;46.40;;;;;;5055396;28;20044;-71
2023/12/11 02:15:52;;;;;;;10.80;5.55;;;22.20;46.30;;;;;;5038042;28;20074;-71
2023/12/11 02:18:18;;;;;;;9.75;5.82;;;22.40;46.30;;;;;;5093510;28;20092;-72
2023/12/11 02:20:45;;;;;;;10.90;5.22;;;22.40;46.30;;;;;;5093356;28;20136;-72
2023/12/11 02:23:26;;;;;;;9.48;5.63;;;22.30;46.20;;;;;;5093552;28;20032;-72
2023/12/11 02:26:19;;;;;;;10.13;5.20;;;22.40;46.20;;;;;;5093352;28;20105;-71
2023/12/11 02:28:46;;;;;;;9.85;5.63;;;22.50;46.20;;;;;;5010788;28;20042;-72
2023/12/11 02:31:13;;;;;;;12.68;5.07;;;22.30;46.10;;;;;;5010731;28;20125;-72
2023/12/11 02:33:39;;;;;;;8.80;4.75;;;22.30;46.00;;;;;;4994634;28;20046;-70
2023/12/11 02:36:05;;;;;;;9.35;5.32;;;22.40;46.00;;;;;;4994499;28;20041;-72
2023/12/11 02:38:32;;;;;;;11.73;4.93;;;22.30;45.90;;;;;;5010738;28;20038;-72
2023/12/11 02:40:58;;;;;;;9.73;5.10;;;22.20;45.80;;;;;;5010740;28;20025;-72
2023/12/11 02:43:24;;;;;;;14.32;5.15;;;22.20;45.80;;;;;;5010736;28;20030;-73
2023/12/11 02:45:50;;;;;;;9.63;5.47;;;22.20;45.80;;;;;;5010327;28;20069;-71
2023/12/11 02:48:16;;;;;;;7.68;4.80;;;22.20;45.80;;;;;;4977535;28;20050;-73
2023/12/11 02:50:42;;;;;;;8.65;4.70;;;22.20;45.80;;;;;;5010530;28;20471;-72
2023/12/11 02:53:08;;;;;;;10.00;5.22;;;22.10;45.70;;;;;;5010145;28;20045;-72
2023/12/11 02:55:34;;;;;;;10.45;5.07;;;22.10;45.70;;;;;;5010399;28;20041;-72
2023/12/11 02:58:02;;;;;;;7.85;5.00;;;22.10;45.80;;;;;;5010083;28;20084;-72
2023/12/11 03:00:30;;;;;;;10.65;6.35;;;22.30;45.90;;;;;;5010132;28;20076;-71
2023/12/11 03:02:57;;;;;;;9.25;5.13;;;22.10;45.80;;;;;;5010040;28;20037;-72
2023/12/11 03:05:23;;;;;;;7.55;5.10;;;22.30;45.80;;;;;;5045589;28;20032;-70
2023/12/11 03:07:50;;;;;;;9.40;5.03;;;22.20;45.60;;;;;;5090952;28;20476;-72
2023/12/11 03:10:16;;;;;;;10.00;5.20;;;22.20;45.60;;;;;;5092453;28;20039;-72
2023/12/11 03:12:42;;;;;;;9.15;5.10;;;22.30;45.60;;;;;;5092275;28;20050;-73
2023/12/11 03:15:09;;;;;;;10.27;5.50;;;22.20;45.50;;;;;;5088126;28;20048;-71
2023/12/11 03:17:35;;;;;;;10.52;5.25;;;22.30;45.60;;;;;;5054013;28;20087;-72
2023/12/11 03:20:01;;;;;;;10.68;5.18;;;22.30;45.50;;;;;;5072024;28;20036;-73
2023/12/11 03:22:28;;;;;;;9.23;4.95;;;22.30;45.50;;;;;;5036508;28;20545;-73
2023/12/11 03:24:55;;;;;;;10.63;5.13;;;22.40;45.40;;;;;;5053929;28;20085;-73
2023/12/11 03:27:21;;;;;;;10.10;5.65;;;22.10;45.20;;;;;;5071416;28;20029;-72
2023/12/11 03:29:48;;;;;;;8.68;5.07;;;22.20;45.20;;;;;;5071901;28;20025;-73
2023/12/11 03:32:15;;;;;;;11.00;5.50;;;22.10;45.20;;;;;;5053913;28;20058;-73
2023/12/11 03:34:41;;;;;;;9.35;5.55;;;22.20;45.20;;;;;;5071518;28;20073;-72
2023/12/11 03:37:09;;;;;;;7.72;4.90;;;22.10;45.20;;;;;;5070380;28;20060;-72
2023/12/11 03:39:35;;;;;;;9.23;5.53;;;22.10;45.20;;;;;;5069380;28;20051;-72
2023/12/11 03:42:01;;;;;;;11.18;5.70;;;22.10;45.20;;;;;;5071419;28;20040;-72
2023/12/11 03:44:27;;;;;;;12.05;5.50;;;22.00;45.00;;;;;;5071862;28;20028;-72
2023/12/11 03:46:53;;;;;;;9.32;5.63;;;22.10;45.10;;;;;;5053753;28;20056;-70
2023/12/11 03:49:20;;;;;;;8.13;4.97;;;22.10;45.10;;;;;;5071439;28;20033;-73
2023/12/11 03:51:47;;;;;;;6.47;4.45;;;22.10;45.10;;;;;;5019770;28;20480;-73
2023/12/11 03:54:13;;;;;;;11.27;5.68;;;22.10;45.20;;;;;;5071469;28;20028;-73
2023/12/11 03:56:40;;;;;;;10.50;5.47;;;22.10;45.20;;;;;;5050310;28;20107;-72
2023/12/11 03:59:06;;;;;;;11.00;5.90;;;22.00;45.10;;;;;;5071413;28;20052;-72
2023/12/11 04:01:32;;;;;;;9.75;5.40;;;21.90;45.00;;;;;;5071363;28;20082;-72
2023/12/11 04:04:00;;;;;;;9.18;5.05;;;22.10;45.10;;;;;;5071388;28;20039;-71
2023/12/11 04:06:26;;;;;;;11.50;5.70;;;22.10;45.00;;;;;;5071357;28;20032;-72
2023/12/11 04:08:52;;;;;;;8.20;4.80;;;22.10;44.90;;;;;;5069582;28;20024;-72
2023/12/11 04:11:18;;;;;;;9.60;5.55;;;22.10;44.90;;;;;;5050994;28;20045;-72
2023/12/11 04:13:44;;;;;;;11.50;5.88;;;22.10;44.90;;;;;;5051171;28;20056;-72
2023/12/11 04:16:11;;;;;;;11.38;5.90;;;22.10;44.80;;;;;;5051039;28;20106;-72
2023/12/11 04:18:38;;;;;;;9.73;5.78;;;22.20;44.80;;;;;;5050997;28;20041;-71
2023/12/11 04:21:05;;;;;;;9.20;5.40;;;22.10;44.70;;;;;;5033363;28;20139;-73
2023/12/11 04:23:32;;;;;;;9.30;5.63;;;22.20;44.70;;;;;;5050740;28;20112;-72
2023/12/11 04:25:59;;;;;;;8.63;5.00;;;22.00;44.70;;;;;;5050746;28;20485;-71
2023/12/11 04:28:25;;;;;;;10.32;5.00;;;22.10;44.70;;;;;;5033068;28;20041;-72
2023/12/11 04:30:52;;;;;;;11.55;6.22;;;22.10;44.70;;;;;;5051097;28;20041;-73
2023/12/11 04:33:18;;;;;;;10.27;5.10;;;22.00;44.70;;;;;;5050935;28;20039;-72
2023/12/11 04:35:44;;;;;;;12.85;6.30;;;22.10;44.80;;;;;;5050831;28;20079;-72
2023/12/11 04:38:11;;;;;;;8.95;5.75;;;22.00;44.70;;;;;;5054696;28;20066;-72
2023/12/11 04:40:37;;;;;;;10.63;5.80;;;21.90;44.70;;;;;;5057345;28;20041;-72
2023/12/11 04:43:03;;;;;;;10.25;4.68;;;21.90;44.70;;;;;;5057356;28;20534;-72
2023/12/11 04:45:29;;;;;;;10.50;6.20;;;21.90;44.70;;;;;;5057335;28;20154;-72
2023/12/11 04:47:55;;;;;;;5.43;2.60;;;22.00;44.70;;;;;;5021840;28;20045;-70
2023/12/11 04:50:21;;;;;;;3.80;2.47;;;22.00;44.80;;;;;;5057513;28;20488;-72
2023/12/11 04:52:48;;;;;;;2.17;1.98;;;21.90;45.00;;;;;;5057231;28;20071;-68
2023/12/11 04:55:14;;;;;;;2.85;2.33;;;22.10;45.10;;;;;;5057478;28;20485;-71
2023/12/11 04:57:40;;;;;;;11.38;5.43;;;22.10;45.20;;;;;;5057293;28;20064;-69
2023/12/11 05:00:07;;;;;;;9.77;6.13;;;22.10;45.40;;;;;;5005959;28;20083;-69
2023/12/11 05:02:33;;;;;;;9.65;6.00;;;22.20;45.50;;;;;;5039360;28;20029;-68
2023/12/11 05:04:59;;;;;;;14.50;5.82;;;22.20;45.50;;;;;;5057278;28;20519;-70
2023/12/11 05:07:25;;;;;;;13.48;6.78;;;22.20;45.40;;;;;;5057065;28;20036;-69
2023/12/11 05:09:51;;;;;;;3.53;2.40;;;22.30;45.90;;;;;;5057432;28;20041;-70
2023/12/11 05:12:17;;;;;;;5.05;3.05;;;22.40;48.60;;;;;;5056937;28;20041;-69
2023/12/11 05:14:43;;;;;;;6.95;3.58;;;22.50;46.40;;;;;;5057044;28;20064;-70
2023/12/11 05:17:10;;;;;;;9.73;4.93;;;22.50;43.90;;;;;;5057119;28;20041;-69
2023/12/11 05:19:36;;;;;;;9.18;6.38;;;22.50;42.10;;;;;;5056840;28;20029;-68
2023/12/11 05:22:02;;;;;;;8.23;5.15;;;22.50;43.60;;;;;;5057113;28;20055;-68
2023/12/11 05:24:30;;;;;;;8.13;4.85;;;22.50;39.10;;;;;;5057117;28;20134;-68
2023/12/11 05:26:56;;;;;;;10.32;5.25;;;22.40;43.80;;;;;;5057204;28;20450;-68
2023/12/11 05:29:22;;;;;;;7.35;5.22;;;22.40;42.10;;;;;;5057043;28;20029;-67
2023/12/11 05:31:48;;;;;;;11.45;6.03;;;22.30;40.90;;;;;;5058231;28;20036;-68
2023/12/11 05:34:15;;;;;;;10.77;5.30;;;22.40;42.10;;;;;;5057128;28;20123;-67
2023/12/11 05:36:41;;;;;;;11.88;6.10;;;22.30;41.90;;;;;;5056895;28;20124;-67
2023/12/11 05:39:07;;;;;;;12.90;5.82;;;22.40;42.10;;;;;;5039391;28;20380;-69
2023/12/11 05:41:33;;;;;;;10.65;6.18;;;22.20;43.60;;;;;;5021352;28;20675;-66
2023/12/11 05:43:59;;;;;;;13.82;6.10;;;22.40;39.90;;;;;;5057181;28;20108;-67
2023/12/11 05:46:26;;;;;;;12.70;7.30;;;22.40;38.90;;;;;;5039237;28;20029;-68
2023/12/11 05:48:52;;;;;;;12.90;7.35;;;22.50;43.50;;;;;;5021968;28;20069;-67
2023/12/11 05:51:18;;;;;;;15.20;8.70;;;22.60;46.30;;;;;;5017958;28;20056;-67
2023/12/11 05:53:44;;;;;;;15.80;8.23;;;22.60;46.40;;;;;;5054017;28;20048;-68
2023/12/11 05:56:10;;;;;;;17.05;8.32;;;22.60;46.40;;;;;;5053610;28;20091;-69
2023/12/11 05:58:36;;;;;;;14.20;9.30;;;22.60;46.40;;;;;;5053158;28;20395;-67
2023/12/11 06:01:02;;;;;;;16.83;8.52;;;22.80;46.60;;;;;;5001533;28;20079;-67
2023/12/11 06:03:28;;;;;;;14.85;7.88;;;22.70;46.70;;;;;;5001746;28;20045;-68
2023/12/11 06:05:58;;;;;;;15.45;8.55;;;22.60;46.70;;;;;;5053321;28;20055;-68
2023/12/11 06:08:25;;;;;;;18.17;8.98;;;22.70;46.80;;;;;;5068229;28;20119;-69
2023/12/11 06:10:51;;;;;;;16.75;7.43;;;22.70;47.00;;;;;;5052544;28;20340;-70
2023/12/11 06:13:17;;;;;;;19.42;9.10;;;22.60;47.20;;;;;;5053028;28;20484;-70
2023/12/11 06:15:43;;;;;;;19.52;9.02;;;22.50;47.60;;;;;;5053253;28;20122;-68
2023/12/11 06:18:09;;;;;;;17.35;9.60;;;22.60;47.70;;;;;;5053008;28;20040;-70
2023/12/11 06:20:35;;;;;;;16.17;8.65;;;22.50;48.70;;;;;;5053230;28;20041;-69
2023/12/11 06:23:02;;;;;;;16.70;7.63;;;22.50;48.20;;;;;;5053298;28;20042;-69
2023/12/11 06:25:28;;;;;;;16.30;8.38;;;22.40;48.30;;;;;;5053114;28;20041;-68
2023/12/11 06:27:54;;;;;;;18.02;8.43;;;22.50;48.60;;;;;;5017645;28;20051;-69
2023/12/11 06:30:20;;;;;;;17.35;9.02;;;22.50;49.00;;;;;;5052909;28;20037;-70
2023/12/11 06:32:46;;;;;;;14.93;8.85;;;22.40;49.60;;;;;;5058266;28;20043;-69
2023/12/11 06:35:12;;;;;;;20.13;9.45;;;22.40;49.80;;;;;;5061374;28;20424;-70
2023/12/11 06:37:38;;;;;;;16.92;9.05;;;22.40;50.20;;;;;;5027216;28;20036;-68
2023/12/11 06:40:04;;;;;;;16.98;9.90;;;22.40;50.20;;;;;;5062933;28;20653;-69
2023/12/11 06:42:37;;;;;;;21.73;10.45;;;22.30;50.30;;;;;;5060852;28;20500;-70
2023/12/11 06:45:05;;;;;;;18.20;9.82;;;22.40;50.50;;;;;;5060713;28;20370;-69
2023/12/11 06:47:31;;;;;;;17.25;8.90;;;22.30;50.40;;;;;;5063334;28;20029;-68
2023/12/11 06:49:57;;;;;;;23.23;10.98;;;22.40;50.60;;;;;;5060542;28;20158;-69
2023/12/11 06:52:25;;;;;;;22.13;10.07;;;22.50;51.00;;;;;;5062286;28;20032;-67
2023/12/11 06:54:51;;;;;;;20.77;10.65;;;22.40;50.90;;;;;;5034774;28;20338;-69
2023/12/11 06:57:17;;;;;;;15.63;6.40;;;22.80;56.10;;;;;;5052350;28;20137;-68
2023/12/11 06:59:43;;;;;;;12.15;6.22;;;23.20;50.00;;;;;;5052274;28;20033;-69
2023/12/11 07:02:09;;;;;;;18.90;10.88;;;23.30;49.80;;;;;;5058460;28;20055;-70
2023/12/11 07:04:35;;;;;;;19.77;10.23;;;23.20;49.90;;;;;;5072309;28;20033;-68
2023/12/11 07:07:01;;;;;;;24.05;11.38;;;23.00;48.90;;;;;;5013289;28;20041;-69
2023/12/11 07:09:29;;;;;;;18.92;10.00;;;23.10;48.70;;;;;;5052302;28;20032;-68
2023/12/11 07:11:55;;;;;;;23.08;11.45;;;22.90;48.70;;;;;;5058205;28;20483;-69
2023/12/11 07:14:23;;;;;;;21.17;9.52;;;22.90;48.90;;;;;;5064387;28;20043;-69
2023/12/11 07:16:49;;;;;;;22.63;11.02;;;22.80;49.00;;;;;;5059914;28;20055;-69
2023/12/11 07:19:16;;;;;;;20.90;10.65;;;22.80;49.40;;;;;;5033857;28;20029;-69
2023/12/11 07:21:43;;;;;;;18.10;9.80;;;22.80;49.50;;;;;;5054788;28;20047;-71
2023/12/11 07:24:09;;;;;;;24.40;11.60;;;22.80;49.60;;;;;;5063237;28;20041;-68
2023/12/11 07:26:36;;;;;;;25.48;11.98;;;22.80;49.70;;;;;;5066028;28;20055;-68
2023/12/11 07:29:02;;;;;;;23.00;11.98;;;22.80;49.60;;;;;;5018821;28;20037;-68
2023/12/11 07:31:28;;;;;;;23.67;10.65;;;22.80;49.60;;;;;;5029576;28;20052;-68
2023/12/11 07:33:54;;;;;;;20.45;11.27;;;22.80;49.60;;;;;;5040720;28;20028;-68
2023/12/11 07:36:20;;;;;;;22.98;10.93;;;22.70;49.60;;;;;;5070683;28;20733;-69
2023/12/11 07:38:46;;;;;;;24.15;11.40;;;22.80;49.60;;;;;;5071456;28;20029;-69
2023/12/11 07:41:22;;;;;;;23.45;11.02;;;22.70;50.20;;;;;;5062980;28;20037;-67
2023/12/11 07:43:48;;;;;;;23.08;11.75;;;22.80;52.00;;;;;;5070845;28;20051;-69
2023/12/11 07:46:19;;;;;;;23.23;12.48;;;22.70;51.90;;;;;;5071062;28;20064;-69
2023/12/11 07:48:45;;;;;;;21.17;10.43;;;22.70;51.40;;;;;;5037766;28;20036;-67
2023/12/11 07:51:25;;;;;;;30.50;12.40;;;22.70;51.10;;;;;;5068319;28;20028;-69
2023/12/11 07:53:54;;;;;;;24.30;12.10;;;22.70;49.80;;;;;;5067044;28;20112;-68
2023/12/11 07:56:21;;;;;;;28.13;12.77;;;22.70;49.50;;;;;;5050897;28;20033;-68
2023/12/11 07:58:48;;;;;;;23.83;12.45;;;22.60;49.20;;;;;;5053710;28;20033;-70
2023/12/11 08:01:14;;;;;;;25.52;11.60;;;22.70;49.20;;;;;;5050795;28;20040;-68
2023/12/11 08:03:41;;;;;;;21.00;11.35;;;22.60;49.20;;;;;;5051050;28;20381;-69
2023/12/11 08:06:10;;;;;;;23.48;12.05;;;22.50;49.40;;;;;;5050925;28;20025;-69
2023/12/11 08:08:40;;;;;;;25.00;12.20;;;22.50;49.60;;;;;;5050815;28;20028;-68
2023/12/11 08:11:29;;;;;;;24.02;12.38;;;22.50;50.20;;;;;;5050896;28;20377;-68
2023/12/11 08:13:55;;;;;;;27.83;12.98;;;22.50;51.80;;;;;;5051164;28;20479;-68
2023/12/11 08:16:22;;;;;;;32.20;15.05;;;22.50;51.80;;;;;;5051077;28;20089;-68
2023/12/11 08:18:48;;;;;;;26.67;14.60;;;22.50;51.80;;;;;;5070534;28;20123;-67
2023/12/11 08:21:16;;;;;;;25.52;13.93;;;22.40;51.90;;;;;;5060569;28;20100;-68
2023/12/11 08:23:47;;;;;;;29.70;14.73;;;22.40;51.80;;;;;;5050806;28;20044;-69
2023/12/11 08:26:20;;;;;;;30.75;14.07;;;22.40;51.70;;;;;;5052083;28;20041;-67
2023/12/11 08:28:47;;;;;;;;;;;22.40;51.90;;;;;;5071314;28;20055;-66
2023/12/11 08:31:13;;;;;;;28.30;13.25;;;22.40;52.40;;;;;;5070452;28;19912;-67
2023/12/11 08:33:39;;;;;;;23.63;9.75;;;22.20;52.80;;;;;;5070515;28;20134;-68
2023/12/11 08:36:06;;;;;;;10.85;5.45;;;22.40;53.00;;;;;;5064540;28;20033;-69
2023/12/11 08:38:33;;;;;;;10.23;4.32;;;22.40;53.10;;;;;;5050584;28;20036;-66
2023/12/11 08:40:59;;;;;;;9.23;4.80;;;22.40;52.30;;;;;;5008444;28;20037;-67
2023/12/11 08:43:26;;;;;;;12.75;6.70;;;22.30;51.40;;;;;;5008331;28;20060;-67
2023/12/11 08:45:52;;;;;;;10.10;5.47;;;22.30;51.10;;;;;;4991853;28;20052;-69
2023/12/11 08:48:18;;;;;;;13.75;5.72;;;22.50;49.50;;;;;;5008360;28;20437;-68
2023/12/11 08:50:44;;;;;;;28.63;12.00;;;22.40;48.80;;;;;;4991870;28;20041;-66
2023/12/11 08:53:10;;;;;;;19.50;6.65;;;22.40;48.40;;;;;;5008246;28;20080;-68
2023/12/11 08:55:36;;;;;;;25.40;12.35;;;22.60;48.10;;;;;;4992169;28;20038;-68
2023/12/11 08:58:03;;;;;;;23.83;12.18;;;22.50;47.70;;;;;;5008506;28;20038;-67
2023/12/11 09:00:29;;;;;;;28.42;13.25;;;22.50;47.40;;;;;;5008943;28;20050;-66
2023/12/11 09:02:55;;;;;;;25.13;11.85;;;22.50;47.40;;;;;;5047814;28;20583;-67
2023/12/11 09:05:21;;;;;;;25.98;13.38;;;22.40;47.40;;;;;;5047843;28;20072;-68
2023/12/11 09:07:47;;;;;;;21.77;12.25;;;22.40;47.80;;;;;;5032223;28;20055;-68
2023/12/11 09:10:13;;;;;;;23.02;12.15;;;22.40;49.30;;;;;;5027502;28;20037;-67
2023/12/11 09:12:41;;;;;;;27.42;12.98;;;22.50;49.60;;;;;;5061025;28;20140;-68
2023/12/11 09:15:07;;;;;;;29.55;13.20;;;22.50;50.00;;;;;;5045766;28;20055;-68
2023/12/11 09:17:34;;;;;;;27.77;13.35;;;22.40;50.50;;;;;;5070303;28;20098;-66
2023/12/11 09:20:04;;;;;;;28.02;12.55;;;22.40;51.10;;;;;;5050984;28;20438;-66
2023/12/11 09:22:30;;;;;;;29.33;12.57;;;22.40;51.00;;;;;;5059072;28;20454;-68
2023/12/11 09:24:56;;;;;;;27.38;13.98;;;22.40;51.30;;;;;;5083347;28;20074;-67
2023/12/11 09:27:22;;;;;;;31.42;13.93;;;22.40;51.70;;;;;;5094383;28;20491;-67
2023/12/11 09:29:48;;;;;;;32.13;13.93;;;22.40;52.90;;;;;;5090708;28;20032;-66
2023/12/11 09:32:15;;;;;;;27.35;12.77;;;22.40;52.70;;;;;;5084790;28;20040;-68
2023/12/11 09:34:41;;;;;;;25.67;13.23;;;22.30;53.00;;;;;;5079536;28;20212;-67
2023/12/11 09:37:08;;;;;;;29.48;13.07;;;22.20;53.30;;;;;;5073434;28;20039;-68
2023/12/11 09:39:35;;;;;;;27.50;13.93;;;22.20;53.20;;;;;;5072585;28;20040;-66
2023/12/11 09:42:01;;;;;;;30.35;13.82;;;22.20;53.10;;;;;;5092455;28;20028;-67
2023/12/11 09:44:28;;;;;;;13.82;8.52;;;22.20;53.20;;;;;;5093619;28;20096;-66
2023/12/11 09:47:12;;;;;;;15.50;9.07;;;22.20;48.60;;;;;;5087920;28;20028;-66
2023/12/11 09:49:38;;;;;;;15.55;9.48;;;22.30;50.00;;;;;;5075046;28;20047;-66
2023/12/11 09:52:04;;;;;;;16.80;10.30;;;22.30;46.70;;;;;;5090221;28;20048;-65
2023/12/11 09:54:31;;;;;;;13.68;9.35;;;22.40;45.60;;;;;;5093739;28;20098;-65
2023/12/11 09:56:58;;;;;;;16.75;10.48;;;22.40;41.40;;;;;;5057853;28;20104;-66
2023/12/11 09:59:25;;;;;;;16.73;9.75;;;22.50;40.70;;;;;;5093672;28;20024;-66
2023/12/11 10:01:52;;;;;;;17.55;10.95;;;22.50;42.50;;;;;;5093843;28;20040;-66
2023/12/11 10:04:18;;;;;;;30.38;14.68;;;22.50;40.60;;;;;;5093479;28;20043;-67
2023/12/11 10:06:44;;;;;;;29.92;14.25;;;22.50;50.80;;;;;;5093790;28;20039;-66
2023/12/11 10:09:30;;;;;;;35.03;16.33;;;22.70;51.20;;;;;;5093233;28;20404;-65
2023/12/11 10:12:00;;;;;;;30.13;14.07;;;22.70;51.40;;;;;;5093376;28;20040;-66
2023/12/11 10:14:28;;;;;;;27.83;14.13;;;22.80;51.40;;;;;;5093305;28;20123;-66
2023/12/11 10:16:54;;;;;;;29.20;14.15;;;22.80;51.40;;;;;;5091720;28;20064;-68
2023/12/11 10:19:39;;;;;;;30.17;14.05;;;22.70;51.60;;;;;;5087849;28;20123;-65
2023/12/11 10:22:05;;;;;;;35.65;15.02;;;22.80;51.80;;;;;;5073040;28;20083;-66
2023/12/11 10:24:31;;;;;;;29.00;13.57;;;22.80;51.80;;;;;;5073192;28;20101;-65
2023/12/11 10:26:57;;;;;;;26.85;13.75;;;22.80;51.90;;;;;;5054268;28;20056;-67
2023/12/11 10:29:30;;;;;;;29.90;14.73;;;22.80;51.90;;;;;;5072713;28;20033;-66
2023/12/11 10:32:03;;;;;;;26.58;13.52;;;22.80;51.80;;;;;;5052831;28;20182;-67
2023/12/11 10:34:45;;;;;;;14.98;7.90;;;22.80;51.70;;;;;;5053992;28;20513;-69
2023/12/11 10:37:17;;;;;;;15.13;9.20;;;22.70;47.30;;;;;;5050008;28;20489;-69
2023/12/11 10:39:55;;;;;;;15.68;9.65;;;22.70;45.30;;;;;;5050120;28;20051;-68
2023/12/11 10:42:22;;;;;;;36.67;12.82;;;22.80;46.30;;;;;;5053707;28;20041;-68
2023/12/11 10:44:49;;;;;;;20.08;9.60;;;22.80;49.30;;;;;;5050043;28;20495;-69
2023/12/11 10:47:16;;;;;;;17.58;7.22;;;23.00;51.30;;;;;;5050104;28;20051;-68
2023/12/11 10:49:42;;;;;;;10.82;6.22;;;23.20;51.30;;;;;;5032994;28;20041;-69
2023/12/11 10:52:08;;;;;;;12.63;7.25;;;23.10;51.00;;;;;;5049860;28;20053;-69
2023/12/11 10:54:38;;;;;;;15.85;9.15;;;23.10;51.70;;;;;;5049944;28;20040;-68
2023/12/11 10:57:08;;;;;;;19.05;9.65;;;23.00;49.50;;;;;;5050042;28;20131;-69
2023/12/11 10:59:35;;;;;;;20.92;9.43;;;23.40;56.80;;;;;;5049817;28;20063;-69
2023/12/11 11:02:03;;;;;;;17.77;10.75;;;24.00;55.70;;;;;;5002645;28;20065;-72
2023/12/11 11:04:34;;;;;;;29.23;16.02;;;24.30;56.30;;;;;;5069591;28;20052;-68
2023/12/11 11:07:08;;;;;;;31.33;14.70;;;24.50;57.30;;;;;;5052861;28;20379;-69
2023/12/11 11:09:52;;;;;;;26.83;14.82;;;24.40;53.80;;;;;;5069483;28;20040;-67
2023/12/11 11:12:34;;;;;;;32.58;15.55;;;24.30;52.50;;;;;;5069261;28;20052;-68
2023/12/11 11:15:00;;;;;;;27.38;14.70;;;24.10;51.80;;;;;;5075747;28;20056;-67
2023/12/11 11:17:55;;;;;;;28.35;15.15;;;24.10;51.30;;;;;;5072679;28;20044;-67
2023/12/11 11:20:23;;;;;;;31.58;14.18;;;24.00;50.90;;;;;;5089387;28;20408;-68
2023/12/11 11:22:49;;;;;;;31.73;15.98;;;24.10;50.90;;;;;;5089427;28;20032;-69
2023/12/11 11:25:54;;;;;;;28.08;15.30;;;24.00;50.80;;;;;;5089708;28;20040;-68
2023/12/11 11:28:40;;;;;;;29.90;15.45;;;23.90;50.80;;;;;;5028254;28;20054;-68
2023/12/11 11:31:10;;;;;;;32.25;16.20;;;23.90;50.80;;;;;;5029026;28;20052;-68
2023/12/11 11:33:56;;;;;;;28.02;14.80;;;23.70;50.80;;;;;;5028938;28;20450;-68
2023/12/11 11:36:43;;;;;;;16.65;10.65;;;23.70;50.90;;;;;;5042735;28;20076;-67
2023/12/11 11:39:09;;;;;;;13.77;9.30;;;24.00;50.00;;;;;;4999315;28;20127;-68
2023/12/11 11:41:35;;;;;;;15.13;10.43;;;24.00;50.20;;;;;;5048786;28;20120;-69
2023/12/11 11:44:06;;;;;;;28.65;15.10;;;24.30;50.70;;;;;;5049023;28;20036;-67
2023/12/11 11:46:55;;;;;;;29.13;15.18;;;24.40;52.60;;;;;;5048138;28;20037;-69
2023/12/11 11:49:35;;;;;;;30.38;16.02;;;24.40;50.80;;;;;;5040044;28;20034;-69
2023/12/11 11:52:06;;;;;;;27.52;15.13;;;24.20;50.50;;;;;;5045652;28;20166;-68
2023/12/11 11:54:36;;;;;;;32.53;15.98;;;24.30;50.70;;;;;;5048866;28;20036;-69
2023/12/11 11:57:02;;;;;;;32.95;16.38;;;24.20;50.20;;;;;;5032085;28;20112;-69
2023/12/11 11:59:28;;;;;;;30.90;15.20;;;24.00;50.20;;;;;;5048859;28;20037;-67
2023/12/11 12:01:57;;;;;;;27.98;14.70;;;24.00;50.20;;;;;;5048593;28;20048;-67
2023/12/11 12:04:26;;;;;;;28.65;15.13;;;24.00;50.20;;;;;;5054967;28;20041;-67
2023/12/11 12:06:55;;;;;;;32.33;14.45;;;24.00;50.30;;;;;;5070925;28;20488;-69
2023/12/11 12:09:22;;;;;;;15.32;9.60;;;23.90;50.40;;;;;;5071087;28;20032;-67
2023/12/11 12:11:48;;;;;;;15.98;10.00;;;23.90;47.30;;;;;;5084288;28;20558;-66
2023/12/11 12:14:14;;;;;;;18.95;10.38;;;23.90;44.80;;;;;;5071127;28;20024;-67
2023/12/11 12:16:40;;;;;;;17.73;10.45;;;23.90;42.50;;;;;;5054252;28;20064;-66
2023/12/11 12:19:06;;;;;;;19.65;10.30;;;23.80;47.00;;;;;;5051133;28;20040;-67
2023/12/11 12:21:54;;;;;;;14.60;10.02;;;23.80;47.80;;;;;;5050840;28;20033;-67
2023/12/11 12:24:21;;;;;;;17.60;10.65;;;23.90;45.10;;;;;;5033130;28;20075;-67
2023/12/11 12:26:53;;;;;;;17.13;9.43;;;23.80;43.80;;;;;;5015272;28;20048;-68
2023/12/11 12:29:20;;;;;;;24.33;13.93;;;23.90;43.70;;;;;;5050697;28;20037;-67
2023/12/11 12:31:46;;;;;;;30.98;14.70;;;23.90;48.90;;;;;;5050431;28;20274;-67
2023/12/11 12:34:13;;;;;;;31.95;15.57;;;24.00;48.80;;;;;;4998830;28;20045;-67
2023/12/11 12:36:41;;;;;;;28.60;15.38;;;24.10;48.80;;;;;;5050589;28;20064;-69
2023/12/11 12:39:07;;;;;;;33.72;14.30;;;23.90;48.90;;;;;;5050552;28;20116;-70